sensor_id;sensor_type;location;lat;lon;timestamp;P1;durP1;ratioP1;P2;durP2;ratioP2
7199;SDS011;3641;49.082;8.200;2023-02-28T00:01:20;6.63;;;4.30;;
7199;SDS011;3641;49.082;8.200;2023-02-28T00:03:47;7.97;;;4.20;;
7199;SDS011;3641;49.082;8.200;2023-02-28T00:06:15;7.07;;;3.90;;
7199;SDS011;3641;49.082;8.200;2023-02-28T00:08:42;7.30;;;4.35;;
7199;SDS011;3641;49.082;8.200;2023-02-28T00:11:09;7.38;;;4.22;;
7199;SDS011;3641;49.082;8.200;2023-02-28T00:13:37;7.88;;;4.35;;
7199;SDS011;3641;49.082;8.200;2023-02-28T00:16:06;7.18;;;4.20;;
7199;SDS011;3641;49.082;8.200;2023-02-28T00:18:34;7.10;;;3.92;;
7199;SDS011;3641;49.082;8.200;2023-02-28T00:21:00;7.47;;;3.85;;
7199;SDS011;3641;49.082;8.200;2023-02-28T00:23:28;7.15;;;4.38;;
7199;SDS011;3641;49.082;8.200;2023-02-28T00:25:55;5.10;;;3.58;;
7199;SDS011;3641;49.082;8.200;2023-02-28T00:28:22;7.00;;;4.07;;
7199;SDS011;3641;49.082;8.200;2023-02-28T00:30:48;8.43;;;4.75;;
7199;SDS011;3641;49.082;8.200;2023-02-28T00:33:15;7.35;;;4.07;;
7199;SDS011;3641;49.082;8.200;2023-02-28T00:35:42;6.38;;;3.97;;
7199;SDS011;3641;49.082;8.200;2023-02-28T00:38:11;7.72;;;4.07;;
7199;SDS011;3641;49.082;8.200;2023-02-28T00:40:39;7.65;;;4.50;;
7199;SDS011;3641;49.082;8.200;2023-02-28T00:43:05;7.20;;;4.47;;
7199;SDS011;3641;49.082;8.200;2023-02-28T00:45:32;8.05;;;4.30;;
7199;SDS011;3641;49.082;8.200;2023-02-28T00:47:58;8.15;;;3.88;;
7199;SDS011;3641;49.082;8.200;2023-02-28T00:50:24;7.18;;;4.03;;
7199;SDS011;3641;49.082;8.200;2023-02-28T00:52:51;7.72;;;3.97;;
7199;SDS011;3641;49.082;8.200;2023-02-28T00:55:17;6.63;;;4.18;;
7199;SDS011;3641;49.082;8.200;2023-02-28T00:57:45;7.55;;;4.03;;
7199;SDS011;3641;49.082;8.200;2023-02-28T01:00:12;6.55;;;3.78;;
7199;SDS011;3641;49.082;8.200;2023-02-28T01:02:39;8.07;;;5.03;;
7199;SDS011;3641;49.082;8.200;2023-02-28T01:05:06;10.70;;;4.60;;
7199;SDS011;3641;49.082;8.200;2023-02-28T01:07:33;8.38;;;4.15;;
7199;SDS011;3641;49.082;8.200;2023-02-28T01:09:59;5.65;;;3.45;;
7199;SDS011;3641;49.082;8.200;2023-02-28T01:12:26;4.45;;;3.15;;
7199;SDS011;3641;49.082;8.200;2023-02-28T01:14:54;8.88;;;4.70;;
7199;SDS011;3641;49.082;8.200;2023-02-28T01:17:20;8.00;;;3.70;;
7199;SDS011;3641;49.082;8.200;2023-02-28T01:19:47;5.82;;;2.97;;
7199;SDS011;3641;49.082;8.200;2023-02-28T01:22:13;8.25;;;3.88;;
7199;SDS011;3641;49.082;8.200;2023-02-28T01:24:40;7.15;;;3.50;;
7199;SDS011;3641;49.082;8.200;2023-02-28T01:27:06;5.20;;;2.80;;
7199;SDS011;3641;49.082;8.200;2023-02-28T01:29:32;6.20;;;3.38;;
7199;SDS011;3641;49.082;8.200;2023-02-28T01:32:00;6.57;;;3.20;;
7199;SDS011;3641;49.082;8.200;2023-02-28T01:34:27;5.00;;;3.00;;
7199;SDS011;3641;49.082;8.200;2023-02-28T01:36:53;6.25;;;2.85;;
7199;SDS011;3641;49.082;8.200;2023-02-28T01:39:19;6.15;;;3.00;;
7199;SDS011;3641;49.082;8.200;2023-02-28T01:41:46;6.30;;;3.03;;
7199;SDS011;3641;49.082;8.200;2023-02-28T01:47:17;4.95;;;2.92;;
7199;SDS011;3641;49.082;8.200;2023-02-28T01:49:44;7.97;;;2.72;;
7199;SDS011;3641;49.082;8.200;2023-02-28T01:52:10;4.40;;;2.67;;
7199;SDS011;3641;49.082;8.200;2023-02-28T01:54:43;5.85;;;2.78;;
7199;SDS011;3641;49.082;8.200;2023-02-28T01:57:15;6.65;;;3.42;;
7199;SDS011;3641;49.082;8.200;2023-02-28T01:59:45;5.20;;;2.80;;
7199;SDS011;3641;49.082;8.200;2023-02-28T02:02:19;5.80;;;2.78;;
7199;SDS011;3641;49.082;8.200;2023-02-28T02:04:50;5.45;;;2.70;;
7199;SDS011;3641;49.082;8.200;2023-02-28T02:07:19;5.10;;;2.53;;
7199;SDS011;3641;49.082;8.200;2023-02-28T02:09:46;5.28;;;2.92;;
7199;SDS011;3641;49.082;8.200;2023-02-28T02:12:15;5.55;;;2.50;;
7199;SDS011;3641;49.082;8.200;2023-02-28T02:14:54;7.97;;;3.40;;
7199;SDS011;3641;49.082;8.200;2023-02-28T02:17:33;7.32;;;3.13;;
7199;SDS011;3641;49.082;8.200;2023-02-28T02:20:13;5.35;;;2.80;;
7199;SDS011;3641;49.082;8.200;2023-02-28T02:26:33;5.55;;;2.80;;
7199;SDS011;3641;49.082;8.200;2023-02-28T02:29:22;5.10;;;2.60;;
7199;SDS011;3641;49.082;8.200;2023-02-28T02:32:17;5.80;;;2.58;;
7199;SDS011;3641;49.082;8.200;2023-02-28T02:35:00;6.45;;;3.13;;
7199;SDS011;3641;49.082;8.200;2023-02-28T02:37:32;7.43;;;3.05;;
7199;SDS011;3641;49.082;8.200;2023-02-28T02:40:08;5.40;;;2.88;;
7199;SDS011;3641;49.082;8.200;2023-02-28T02:42:41;6.60;;;3.20;;
7199;SDS011;3641;49.082;8.200;2023-02-28T02:45:14;5.00;;;2.83;;
7199;SDS011;3641;49.082;8.200;2023-02-28T02:47:45;7.78;;;3.55;;
7199;SDS011;3641;49.082;8.200;2023-02-28T02:50:15;5.75;;;3.03;;
7199;SDS011;3641;49.082;8.200;2023-02-28T02:52:46;6.00;;;3.03;;
7199;SDS011;3641;49.082;8.200;2023-02-28T02:55:18;5.90;;;3.55;;
7199;SDS011;3641;49.082;8.200;2023-02-28T02:57:48;5.50;;;3.28;;
7199;SDS011;3641;49.082;8.200;2023-02-28T03:00:19;4.25;;;2.67;;
7199;SDS011;3641;49.082;8.200;2023-02-28T03:02:50;6.65;;;3.10;;
7199;SDS011;3641;49.082;8.200;2023-02-28T03:05:23;6.00;;;2.83;;
7199;SDS011;3641;49.082;8.200;2023-02-28T03:07:51;5.47;;;2.83;;
7199;SDS011;3641;49.082;8.200;2023-02-28T03:10:28;7.38;;;3.22;;
7199;SDS011;3641;49.082;8.200;2023-02-28T03:13:00;6.05;;;3.30;;
7199;SDS011;3641;49.082;8.200;2023-02-28T03:15:50;5.75;;;3.30;;
7199;SDS011;3641;49.082;8.200;2023-02-28T03:18:24;5.60;;;3.55;;
7199;SDS011;3641;49.082;8.200;2023-02-28T03:21:04;5.88;;;3.60;;
7199;SDS011;3641;49.082;8.200;2023-02-28T03:23:38;5.85;;;3.08;;
7199;SDS011;3641;49.082;8.200;2023-02-28T03:26:13;7.20;;;3.58;;
7199;SDS011;3641;49.082;8.200;2023-02-28T03:28:48;8.18;;;3.50;;
7199;SDS011;3641;49.082;8.200;2023-02-28T03:31:22;5.95;;;3.22;;
7199;SDS011;3641;49.082;8.200;2023-02-28T03:33:56;8.80;;;3.20;;
7199;SDS011;3641;49.082;8.200;2023-02-28T03:36:29;6.28;;;3.25;;
7199;SDS011;3641;49.082;8.200;2023-02-28T03:39:02;8.38;;;3.92;;
7199;SDS011;3641;49.082;8.200;2023-02-28T03:41:35;7.35;;;3.80;;
7199;SDS011;3641;49.082;8.200;2023-02-28T03:44:07;6.22;;;3.40;;
7199;SDS011;3641;49.082;8.200;2023-02-28T03:46:40;7.43;;;3.95;;
7199;SDS011;3641;49.082;8.200;2023-02-28T03:49:12;6.28;;;3.53;;
7199;SDS011;3641;49.082;8.200;2023-02-28T03:51:43;6.78;;;3.53;;
7199;SDS011;3641;49.082;8.200;2023-02-28T03:54:12;9.25;;;3.83;;
7199;SDS011;3641;49.082;8.200;2023-02-28T03:56:45;6.53;;;3.60;;
7199;SDS011;3641;49.082;8.200;2023-02-28T03:59:18;7.03;;;4.03;;
7199;SDS011;3641;49.082;8.200;2023-02-28T04:01:48;6.90;;;3.92;;
7199;SDS011;3641;49.082;8.200;2023-02-28T04:04:17;7.57;;;5.03;;
7199;SDS011;3641;49.082;8.200;2023-02-28T04:06:45;17.85;;;7.97;;
7199;SDS011;3641;49.082;8.200;2023-02-28T04:09:15;13.93;;;7.00;;
7199;SDS011;3641;49.082;8.200;2023-02-28T04:11:42;14.18;;;6.57;;
7199;SDS011;3641;49.082;8.200;2023-02-28T04:14:11;11.93;;;5.95;;
7199;SDS011;3641;49.082;8.200;2023-02-28T04:16:39;9.77;;;5.13;;
7199;SDS011;3641;49.082;8.200;2023-02-28T04:19:07;8.90;;;4.47;;
7199;SDS011;3641;49.082;8.200;2023-02-28T04:21:36;8.18;;;4.78;;
7199;SDS011;3641;49.082;8.200;2023-02-28T04:24:06;8.07;;;4.50;;
7199;SDS011;3641;49.082;8.200;2023-02-28T04:26:34;9.02;;;4.55;;
7199;SDS011;3641;49.082;8.200;2023-02-28T04:29:02;8.20;;;4.72;;
7199;SDS011;3641;49.082;8.200;2023-02-28T04:31:30;9.77;;;4.53;;
7199;SDS011;3641;49.082;8.200;2023-02-28T04:33:57;9.10;;;4.90;;
7199;SDS011;3641;49.082;8.200;2023-02-28T04:36:23;9.68;;;5.25;;
7199;SDS011;3641;49.082;8.200;2023-02-28T04:38:50;10.15;;;4.93;;
7199;SDS011;3641;49.082;8.200;2023-02-28T04:41:17;7.78;;;4.47;;
7199;SDS011;3641;49.082;8.200;2023-02-28T04:43:44;10.50;;;4.85;;
7199;SDS011;3641;49.082;8.200;2023-02-28T04:46:10;9.68;;;4.80;;
7199;SDS011;3641;49.082;8.200;2023-02-28T04:48:37;7.47;;;4.72;;
7199;SDS011;3641;49.082;8.200;2023-02-28T04:51:06;9.20;;;5.30;;
7199;SDS011;3641;49.082;8.200;2023-02-28T04:53:33;9.77;;;4.75;;
7199;SDS011;3641;49.082;8.200;2023-02-28T04:56:00;7.40;;;4.68;;
7199;SDS011;3641;49.082;8.200;2023-02-28T04:58:28;8.52;;;4.70;;
7199;SDS011;3641;49.082;8.200;2023-02-28T05:01:00;9.02;;;4.47;;
7199;SDS011;3641;49.082;8.200;2023-02-28T05:03:28;9.38;;;4.93;;
7199;SDS011;3641;49.082;8.200;2023-02-28T05:05:55;8.98;;;4.90;;
7199;SDS011;3641;49.082;8.200;2023-02-28T05:08:21;8.32;;;4.35;;
7199;SDS011;3641;49.082;8.200;2023-02-28T05:10:48;8.98;;;4.97;;
7199;SDS011;3641;49.082;8.200;2023-02-28T05:13:15;10.02;;;5.18;;
7199;SDS011;3641;49.082;8.200;2023-02-28T05:15:43;8.35;;;4.97;;
7199;SDS011;3641;49.082;8.200;2023-02-28T05:18:09;10.77;;;5.32;;
7199;SDS011;3641;49.082;8.200;2023-02-28T05:20:36;9.25;;;5.38;;
7199;SDS011;3641;49.082;8.200;2023-02-28T05:23:02;9.63;;;5.47;;
7199;SDS011;3641;49.082;8.200;2023-02-28T05:25:29;11.82;;;5.68;;
7199;SDS011;3641;49.082;8.200;2023-02-28T05:27:55;8.55;;;4.93;;
7199;SDS011;3641;49.082;8.200;2023-02-28T05:30:22;9.75;;;5.60;;
7199;SDS011;3641;49.082;8.200;2023-02-28T05:32:51;8.23;;;4.97;;
7199;SDS011;3641;49.082;8.200;2023-02-28T05:35:17;11.68;;;5.18;;
7199;SDS011;3641;49.082;8.200;2023-02-28T05:37:44;13.40;;;5.97;;
7199;SDS011;3641;49.082;8.200;2023-02-28T05:40:11;9.38;;;5.32;;
7199;SDS011;3641;49.082;8.200;2023-02-28T05:42:38;13.07;;;5.30;;
7199;SDS011;3641;49.082;8.200;2023-02-28T05:45:05;10.38;;;5.80;;
7199;SDS011;3641;49.082;8.200;2023-02-28T05:47:32;10.85;;;5.35;;
7199;SDS011;3641;49.082;8.200;2023-02-28T05:50:00;9.68;;;5.70;;
7199;SDS011;3641;49.082;8.200;2023-02-28T05:52:27;10.48;;;5.75;;
7199;SDS011;3641;49.082;8.200;2023-02-28T05:54:55;11.63;;;6.00;;
7199;SDS011;3641;49.082;8.200;2023-02-28T05:57:21;10.20;;;5.60;;
7199;SDS011;3641;49.082;8.200;2023-02-28T05:59:48;10.32;;;6.20;;
7199;SDS011;3641;49.082;8.200;2023-02-28T06:02:15;11.95;;;5.50;;
7199;SDS011;3641;49.082;8.200;2023-02-28T06:04:43;11.05;;;5.80;;
7199;SDS011;3641;49.082;8.200;2023-02-28T06:07:11;11.18;;;6.13;;
7199;SDS011;3641;49.082;8.200;2023-02-28T06:09:37;12.82;;;5.93;;
7199;SDS011;3641;49.082;8.200;2023-02-28T06:12:05;13.70;;;6.60;;
7199;SDS011;3641;49.082;8.200;2023-02-28T06:14:34;11.38;;;6.38;;
7199;SDS011;3641;49.082;8.200;2023-02-28T06:17:02;9.77;;;5.93;;
7199;SDS011;3641;49.082;8.200;2023-02-28T06:19:29;10.95;;;5.45;;
7199;SDS011;3641;49.082;8.200;2023-02-28T06:21:56;12.52;;;6.55;;
7199;SDS011;3641;49.082;8.200;2023-02-28T06:24:24;13.38;;;6.47;;
7199;SDS011;3641;49.082;8.200;2023-02-28T06:26:53;15.75;;;6.95;;
7199;SDS011;3641;49.082;8.200;2023-02-28T06:29:20;10.85;;;6.38;;
7199;SDS011;3641;49.082;8.200;2023-02-28T06:31:46;12.57;;;6.32;;
7199;SDS011;3641;49.082;8.200;2023-02-28T06:34:13;11.80;;;6.70;;
7199;SDS011;3641;49.082;8.200;2023-02-28T06:36:40;10.52;;;6.10;;
7199;SDS011;3641;49.082;8.200;2023-02-28T06:39:08;10.90;;;6.78;;
7199;SDS011;3641;49.082;8.200;2023-02-28T06:41:36;11.95;;;6.40;;
7199;SDS011;3641;49.082;8.200;2023-02-28T06:44:04;12.15;;;6.15;;
7199;SDS011;3641;49.082;8.200;2023-02-28T06:46:32;15.07;;;6.68;;
7199;SDS011;3641;49.082;8.200;2023-02-28T06:48:58;12.57;;;6.72;;
7199;SDS011;3641;49.082;8.200;2023-02-28T06:51:25;10.60;;;5.88;;
7199;SDS011;3641;49.082;8.200;2023-02-28T06:53:52;12.38;;;6.75;;
7199;SDS011;3641;49.082;8.200;2023-02-28T06:56:18;11.80;;;6.15;;
7199;SDS011;3641;49.082;8.200;2023-02-28T06:58:47;11.73;;;6.80;;
7199;SDS011;3641;49.082;8.200;2023-02-28T07:01:15;10.45;;;6.38;;
7199;SDS011;3641;49.082;8.200;2023-02-28T07:03:42;12.68;;;6.90;;
7199;SDS011;3641;49.082;8.200;2023-02-28T07:06:09;11.30;;;6.75;;
7199;SDS011;3641;49.082;8.200;2023-02-28T07:08:35;13.18;;;6.43;;
7199;SDS011;3641;49.082;8.200;2023-02-28T07:11:02;11.75;;;6.25;;
7199;SDS011;3641;49.082;8.200;2023-02-28T07:13:29;14.23;;;7.13;;
7199;SDS011;3641;49.082;8.200;2023-02-28T07:15:58;11.68;;;5.85;;
7199;SDS011;3641;49.082;8.200;2023-02-28T07:18:26;11.63;;;6.38;;
7199;SDS011;3641;49.082;8.200;2023-02-28T07:20:52;12.27;;;6.45;;
7199;SDS011;3641;49.082;8.200;2023-02-28T07:23:19;12.30;;;6.35;;
7199;SDS011;3641;49.082;8.200;2023-02-28T07:25:46;13.60;;;6.88;;
7199;SDS011;3641;49.082;8.200;2023-02-28T07:28:13;10.75;;;6.57;;
7199;SDS011;3641;49.082;8.200;2023-02-28T07:30:40;12.20;;;6.82;;
7199;SDS011;3641;49.082;8.200;2023-02-28T07:33:08;11.95;;;7.05;;
7199;SDS011;3641;49.082;8.200;2023-02-28T07:35:34;11.60;;;6.65;;
7199;SDS011;3641;49.082;8.200;2023-02-28T07:38:01;13.52;;;6.80;;
7199;SDS011;3641;49.082;8.200;2023-02-28T07:40:28;13.30;;;6.80;;
7199;SDS011;3641;49.082;8.200;2023-02-28T07:42:55;13.05;;;6.90;;
7199;SDS011;3641;49.082;8.200;2023-02-28T07:45:22;13.70;;;7.40;;
7199;SDS011;3641;49.082;8.200;2023-02-28T07:47:48;12.13;;;7.78;;
7199;SDS011;3641;49.082;8.200;2023-02-28T07:50:16;15.50;;;8.43;;
7199;SDS011;3641;49.082;8.200;2023-02-28T07:52:42;12.57;;;7.70;;
7199;SDS011;3641;49.082;8.200;2023-02-28T07:55:09;15.13;;;7.15;;
7199;SDS011;3641;49.082;8.200;2023-02-28T07:57:36;12.55;;;6.82;;
7199;SDS011;3641;49.082;8.200;2023-02-28T08:00:03;12.38;;;7.13;;
7199;SDS011;3641;49.082;8.200;2023-02-28T08:02:30;11.98;;;7.38;;
7199;SDS011;3641;49.082;8.200;2023-02-28T08:04:57;14.68;;;6.82;;
7199;SDS011;3641;49.082;8.200;2023-02-28T08:07:24;12.30;;;7.07;;
7199;SDS011;3641;49.082;8.200;2023-02-28T08:09:51;13.35;;;6.75;;
7199;SDS011;3641;49.082;8.200;2023-02-28T08:12:17;12.55;;;7.28;;
7199;SDS011;3641;49.082;8.200;2023-02-28T08:14:44;12.13;;;6.72;;
7199;SDS011;3641;49.082;8.200;2023-02-28T08:17:10;14.45;;;8.30;;
7199;SDS011;3641;49.082;8.200;2023-02-28T08:19:37;12.65;;;7.70;;
7199;SDS011;3641;49.082;8.200;2023-02-28T08:22:04;12.25;;;7.90;;
7199;SDS011;3641;49.082;8.200;2023-02-28T08:24:32;12.55;;;7.38;;
7199;SDS011;3641;49.082;8.200;2023-02-28T08:26:58;14.55;;;7.68;;
7199;SDS011;3641;49.082;8.200;2023-02-28T08:29:25;14.05;;;7.32;;
7199;SDS011;3641;49.082;8.200;2023-02-28T08:31:52;11.75;;;7.13;;
7199;SDS011;3641;49.082;8.200;2023-02-28T08:34:18;12.80;;;7.40;;
7199;SDS011;3641;49.082;8.200;2023-02-28T08:36:44;14.52;;;7.88;;
7199;SDS011;3641;49.082;8.200;2023-02-28T08:39:11;12.73;;;7.50;;
7199;SDS011;3641;49.082;8.200;2023-02-28T08:41:39;13.65;;;7.43;;
7199;SDS011;3641;49.082;8.200;2023-02-28T08:44:06;14.32;;;7.53;;
7199;SDS011;3641;49.082;8.200;2023-02-28T08:46:32;15.70;;;7.88;;
7199;SDS011;3641;49.082;8.200;2023-02-28T08:48:59;13.70;;;7.75;;
7199;SDS011;3641;49.082;8.200;2023-02-28T08:51:27;13.23;;;7.28;;
7199;SDS011;3641;49.082;8.200;2023-02-28T08:53:54;13.98;;;8.15;;
7199;SDS011;3641;49.082;8.200;2023-02-28T08:56:24;13.27;;;7.50;;
7199;SDS011;3641;49.082;8.200;2023-02-28T08:58:53;13.23;;;7.65;;
7199;SDS011;3641;49.082;8.200;2023-02-28T09:01:21;13.18;;;8.10;;
7199;SDS011;3641;49.082;8.200;2023-02-28T09:03:49;13.95;;;7.97;;
7199;SDS011;3641;49.082;8.200;2023-02-28T09:06:17;13.18;;;7.55;;
7199;SDS011;3641;49.082;8.200;2023-02-28T09:08:45;14.15;;;7.70;;
7199;SDS011;3641;49.082;8.200;2023-02-28T09:11:12;13.20;;;8.10;;
7199;SDS011;3641;49.082;8.200;2023-02-28T09:13:39;14.73;;;8.55;;
7199;SDS011;3641;49.082;8.200;2023-02-28T09:16:07;15.45;;;7.68;;
7199;SDS011;3641;49.082;8.200;2023-02-28T09:18:36;13.50;;;7.93;;
7199;SDS011;3641;49.082;8.200;2023-02-28T09:21:04;14.48;;;7.72;;
7199;SDS011;3641;49.082;8.200;2023-02-28T09:23:31;14.27;;;8.20;;
7199;SDS011;3641;49.082;8.200;2023-02-28T09:25:57;13.82;;;7.88;;
7199;SDS011;3641;49.082;8.200;2023-02-28T09:28:24;13.88;;;7.88;;
7199;SDS011;3641;49.082;8.200;2023-02-28T09:30:51;12.63;;;8.02;;
7199;SDS011;3641;49.082;8.200;2023-02-28T09:33:21;14.98;;;8.38;;
7199;SDS011;3641;49.082;8.200;2023-02-28T09:35:48;13.27;;;7.80;;
7199;SDS011;3641;49.082;8.200;2023-02-28T09:38:15;13.45;;;8.27;;
7199;SDS011;3641;49.082;8.200;2023-02-28T09:40:45;13.90;;;8.18;;
7199;SDS011;3641;49.082;8.200;2023-02-28T09:43:17;14.05;;;8.68;;
7199;SDS011;3641;49.082;8.200;2023-02-28T09:45:47;15.05;;;8.27;;
7199;SDS011;3641;49.082;8.200;2023-02-28T09:48:17;18.23;;;8.02;;
7199;SDS011;3641;49.082;8.200;2023-02-28T09:50:50;14.85;;;7.80;;
7199;SDS011;3641;49.082;8.200;2023-02-28T09:53:21;15.00;;;8.38;;
7199;SDS011;3641;49.082;8.200;2023-02-28T09:55:53;13.45;;;8.05;;
7199;SDS011;3641;49.082;8.200;2023-02-28T09:58:26;13.52;;;7.88;;
7199;SDS011;3641;49.082;8.200;2023-02-28T10:00:58;13.07;;;8.18;;
7199;SDS011;3641;49.082;8.200;2023-02-28T10:03:31;15.13;;;7.97;;
7199;SDS011;3641;49.082;8.200;2023-02-28T10:06:05;14.50;;;8.57;;
7199;SDS011;3641;49.082;8.200;2023-02-28T10:08:37;14.10;;;8.60;;
7199;SDS011;3641;49.082;8.200;2023-02-28T10:11:11;13.35;;;7.93;;
7199;SDS011;3641;49.082;8.200;2023-02-28T10:13:43;13.82;;;8.20;;
7199;SDS011;3641;49.082;8.200;2023-02-28T10:16:16;13.02;;;8.10;;
7199;SDS011;3641;49.082;8.200;2023-02-28T10:18:50;14.13;;;8.77;;
7199;SDS011;3641;49.082;8.200;2023-02-28T10:21:23;13.90;;;7.88;;
7199;SDS011;3641;49.082;8.200;2023-02-28T10:23:56;14.45;;;8.10;;
7199;SDS011;3641;49.082;8.200;2023-02-28T10:26:29;16.00;;;8.38;;
7199;SDS011;3641;49.082;8.200;2023-02-28T10:28:58;15.32;;;9.38;;
7199;SDS011;3641;49.082;8.200;2023-02-28T10:31:25;14.15;;;8.40;;
7199;SDS011;3641;49.082;8.200;2023-02-28T10:33:52;14.77;;;8.90;;
7199;SDS011;3641;49.082;8.200;2023-02-28T10:36:19;13.43;;;8.02;;
7199;SDS011;3641;49.082;8.200;2023-02-28T10:38:47;15.20;;;8.65;;
7199;SDS011;3641;49.082;8.200;2023-02-28T10:41:15;14.80;;;8.77;;
7199;SDS011;3641;49.082;8.200;2023-02-28T10:43:52;15.52;;;8.77;;
7199;SDS011;3641;49.082;8.200;2023-02-28T10:46:19;15.98;;;8.27;;
7199;SDS011;3641;49.082;8.200;2023-02-28T10:48:59;16.10;;;8.40;;
7199;SDS011;3641;49.082;8.200;2023-02-28T10:51:33;13.88;;;8.68;;
7199;SDS011;3641;49.082;8.200;2023-02-28T10:54:02;15.30;;;8.55;;
7199;SDS011;3641;49.082;8.200;2023-02-28T10:56:29;12.50;;;8.18;;
7199;SDS011;3641;49.082;8.200;2023-02-28T10:58:57;15.07;;;8.05;;
7199;SDS011;3641;49.082;8.200;2023-02-28T11:01:34;15.57;;;8.90;;
7199;SDS011;3641;49.082;8.200;2023-02-28T11:04:03;15.15;;;8.55;;
7199;SDS011;3641;49.082;8.200;2023-02-28T11:06:43;14.13;;;8.23;;
7199;SDS011;3641;49.082;8.200;2023-02-28T11:09:16;14.50;;;9.07;;
7199;SDS011;3641;49.082;8.200;2023-02-28T11:11:47;13.68;;;8.55;;
7199;SDS011;3641;49.082;8.200;2023-02-28T11:14:17;16.10;;;9.38;;
7199;SDS011;3641;49.082;8.200;2023-02-28T11:16:46;13.60;;;8.93;;
7199;SDS011;3641;49.082;8.200;2023-02-28T11:19:18;16.27;;;8.80;;
7199;SDS011;3641;49.082;8.200;2023-02-28T11:21:51;14.85;;;8.52;;
7199;SDS011;3641;49.082;8.200;2023-02-28T11:24:22;14.73;;;9.18;;
7199;SDS011;3641;49.082;8.200;2023-02-28T11:26:50;14.93;;;8.85;;
7199;SDS011;3641;49.082;8.200;2023-02-28T11:29:18;16.35;;;8.82;;
7199;SDS011;3641;49.082;8.200;2023-02-28T11:32:02;15.00;;;8.70;;
7199;SDS011;3641;49.082;8.200;2023-02-28T11:34:35;15.82;;;9.77;;
7199;SDS011;3641;49.082;8.200;2023-02-28T11:37:03;13.95;;;8.52;;
7199;SDS011;3641;49.082;8.200;2023-02-28T11:39:31;15.25;;;9.15;;
7199;SDS011;3641;49.082;8.200;2023-02-28T11:42:08;18.00;;;10.13;;
7199;SDS011;3641;49.082;8.200;2023-02-28T11:44:52;15.43;;;9.30;;
7199;SDS011;3641;49.082;8.200;2023-02-28T11:47:31;17.95;;;10.15;;
7199;SDS011;3641;49.082;8.200;2023-02-28T11:50:16;14.95;;;9.13;;
7199;SDS011;3641;49.082;8.200;2023-02-28T11:52:53;16.08;;;9.68;;
7199;SDS011;3641;49.082;8.200;2023-02-28T11:55:24;14.88;;;8.90;;
7199;SDS011;3641;49.082;8.200;2023-02-28T11:58:11;15.38;;;9.27;;
7199;SDS011;3641;49.082;8.200;2023-02-28T12:00:48;14.45;;;8.70;;
7199;SDS011;3641;49.082;8.200;2023-02-28T12:03:26;14.07;;;9.00;;
7199;SDS011;3641;49.082;8.200;2023-02-28T12:06:02;14.25;;;9.32;;
7199;SDS011;3641;49.082;8.200;2023-02-28T12:08:42;15.27;;;8.98;;
7199;SDS011;3641;49.082;8.200;2023-02-28T12:11:15;14.98;;;9.38;;
7199;SDS011;3641;49.082;8.200;2023-02-28T12:13:54;19.52;;;9.57;;
7199;SDS011;3641;49.082;8.200;2023-02-28T12:19:22;18.40;;;9.75;;
7199;SDS011;3641;49.082;8.200;2023-02-28T12:22:02;17.55;;;9.70;;
7199;SDS011;3641;49.082;8.200;2023-02-28T12:24:52;16.70;;;9.82;;
7199;SDS011;3641;49.082;8.200;2023-02-28T12:27:30;15.00;;;9.10;;
7199;SDS011;3641;49.082;8.200;2023-02-28T12:30:00;14.55;;;9.55;;
7199;SDS011;3641;49.082;8.200;2023-02-28T12:32:32;15.48;;;9.00;;
7199;SDS011;3641;49.082;8.200;2023-02-28T12:35:04;17.13;;;9.63;;
7199;SDS011;3641;49.082;8.200;2023-02-28T12:37:40;16.88;;;9.40;;
7199;SDS011;3641;49.082;8.200;2023-02-28T12:40:12;15.52;;;9.75;;
7199;SDS011;3641;49.082;8.200;2023-02-28T12:42:42;14.68;;;9.55;;
7199;SDS011;3641;49.082;8.200;2023-02-28T12:45:15;14.95;;;9.00;;
7199;SDS011;3641;49.082;8.200;2023-02-28T12:47:46;14.65;;;8.70;;
7199;SDS011;3641;49.082;8.200;2023-02-28T12:50:18;15.07;;;9.15;;
7199;SDS011;3641;49.082;8.200;2023-02-28T12:52:49;15.68;;;9.65;;
7199;SDS011;3641;49.082;8.200;2023-02-28T12:55:23;16.13;;;9.73;;
7199;SDS011;3641;49.082;8.200;2023-02-28T12:57:58;14.48;;;9.05;;
7199;SDS011;3641;49.082;8.200;2023-02-28T13:00:36;17.02;;;9.45;;
7199;SDS011;3641;49.082;8.200;2023-02-28T13:03:20;15.73;;;9.27;;
7199;SDS011;3641;49.082;8.200;2023-02-28T13:06:03;15.38;;;9.52;;
7199;SDS011;3641;49.082;8.200;2023-02-28T13:11:38;15.60;;;9.40;;
7199;SDS011;3641;49.082;8.200;2023-02-28T13:14:20;15.88;;;9.73;;
7199;SDS011;3641;49.082;8.200;2023-02-28T13:16:52;15.48;;;9.43;;
7199;SDS011;3641;49.082;8.200;2023-02-28T13:19:23;13.88;;;9.13;;
7199;SDS011;3641;49.082;8.200;2023-02-28T13:21:51;16.75;;;9.40;;
7199;SDS011;3641;49.082;8.200;2023-02-28T13:24:40;16.90;;;9.43;;
7199;SDS011;3641;49.082;8.200;2023-02-28T13:30:49;19.17;;;9.88;;
7199;SDS011;3641;49.082;8.200;2023-02-28T13:36:08;16.92;;;9.88;;
7199;SDS011;3641;49.082;8.200;2023-02-28T13:38:38;19.08;;;9.98;;
7199;SDS011;3641;49.082;8.200;2023-02-28T13:44:13;16.38;;;10.05;;
7199;SDS011;3641;49.082;8.200;2023-02-28T13:52:46;15.57;;;9.98;;
7199;SDS011;3641;49.082;8.200;2023-02-28T13:55:24;16.02;;;10.20;;
7199;SDS011;3641;49.082;8.200;2023-02-28T14:01:06;14.02;;;9.18;;
7199;SDS011;3641;49.082;8.200;2023-02-28T14:03:44;15.02;;;9.70;;
7199;SDS011;3641;49.082;8.200;2023-02-28T14:06:23;17.67;;;10.82;;
7199;SDS011;3641;49.082;8.200;2023-02-28T14:08:54;16.05;;;10.65;;
7199;SDS011;3641;49.082;8.200;2023-02-28T14:11:26;15.70;;;10.55;;
7199;SDS011;3641;49.082;8.200;2023-02-28T14:13:57;16.63;;;10.07;;
7199;SDS011;3641;49.082;8.200;2023-02-28T14:16:25;16.90;;;10.40;;
7199;SDS011;3641;49.082;8.200;2023-02-28T14:18:56;17.13;;;10.50;;
7199;SDS011;3641;49.082;8.200;2023-02-28T14:21:25;21.05;;;10.82;;
7199;SDS011;3641;49.082;8.200;2023-02-28T14:27:08;24.00;;;11.18;;
7199;SDS011;3641;49.082;8.200;2023-02-28T14:29:46;16.08;;;10.48;;
7199;SDS011;3641;49.082;8.200;2023-02-28T14:32:37;20.00;;;11.15;;
7199;SDS011;3641;49.082;8.200;2023-02-28T14:35:16;18.23;;;10.60;;
7199;SDS011;3641;49.082;8.200;2023-02-28T14:37:48;16.67;;;10.55;;
7199;SDS011;3641;49.082;8.200;2023-02-28T14:40:16;14.93;;;9.93;;
7199;SDS011;3641;49.082;8.200;2023-02-28T14:42:47;15.43;;;10.13;;
7199;SDS011;3641;49.082;8.200;2023-02-28T14:45:19;18.27;;;10.98;;
7199;SDS011;3641;49.082;8.200;2023-02-28T14:47:47;16.13;;;10.13;;
7199;SDS011;3641;49.082;8.200;2023-02-28T14:50:18;19.65;;;10.40;;
7199;SDS011;3641;49.082;8.200;2023-02-28T14:52:46;16.00;;;10.23;;
7199;SDS011;3641;49.082;8.200;2023-02-28T14:55:14;17.80;;;10.35;;
7199;SDS011;3641;49.082;8.200;2023-02-28T14:57:50;15.93;;;10.05;;
7199;SDS011;3641;49.082;8.200;2023-02-28T15:00:22;17.60;;;10.80;;
7199;SDS011;3641;49.082;8.200;2023-02-28T15:02:51;16.35;;;10.52;;
7199;SDS011;3641;49.082;8.200;2023-02-28T15:05:28;16.40;;;10.35;;
7199;SDS011;3641;49.082;8.200;2023-02-28T15:08:03;17.92;;;11.20;;
7199;SDS011;3641;49.082;8.200;2023-02-28T15:10:31;18.92;;;11.23;;
7199;SDS011;3641;49.082;8.200;2023-02-28T15:13:00;16.80;;;10.15;;
7199;SDS011;3641;49.082;8.200;2023-02-28T15:15:35;18.10;;;10.52;;
7199;SDS011;3641;49.082;8.200;2023-02-28T15:18:08;21.23;;;11.20;;
7199;SDS011;3641;49.082;8.200;2023-02-28T15:20:41;21.85;;;11.45;;
7199;SDS011;3641;49.082;8.200;2023-02-28T15:23:09;18.25;;;11.63;;
7199;SDS011;3641;49.082;8.200;2023-02-28T15:25:37;16.50;;;10.55;;
7199;SDS011;3641;49.082;8.200;2023-02-28T15:28:05;17.20;;;10.63;;
7199;SDS011;3641;49.082;8.200;2023-02-28T15:30:49;18.85;;;11.30;;
7199;SDS011;3641;49.082;8.200;2023-02-28T15:33:19;17.00;;;10.85;;
7199;SDS011;3641;49.082;8.200;2023-02-28T15:35:47;16.63;;;11.38;;
7199;SDS011;3641;49.082;8.200;2023-02-28T15:38:15;19.17;;;11.45;;
7199;SDS011;3641;49.082;8.200;2023-02-28T15:40:43;17.95;;;11.75;;
7199;SDS011;3641;49.082;8.200;2023-02-28T15:43:18;16.80;;;10.82;;
7199;SDS011;3641;49.082;8.200;2023-02-28T15:45:51;18.25;;;11.15;;
7199;SDS011;3641;49.082;8.200;2023-02-28T15:48:21;18.60;;;11.15;;
7199;SDS011;3641;49.082;8.200;2023-02-28T15:50:51;19.48;;;11.13;;
7199;SDS011;3641;49.082;8.200;2023-02-28T15:53:21;17.90;;;11.18;;
7199;SDS011;3641;49.082;8.200;2023-02-28T15:55:54;18.88;;;11.27;;
7199;SDS011;3641;49.082;8.200;2023-02-28T15:58:24;19.30;;;11.55;;